Time;durP1;ratioP1;P1;durP2;ratioP2;P2;SDS_P1;SDS_P2;PMS_P1;PMS_P2;Temp;Humidity;BMP_temperature;BMP_pressure;BME280_temperature;BME280_humidity;BME280_pressure;Samples;Min_cycle;Max_cycle;Signal;HPM_P1;HPM_P2
2021/12/15 00:02:00;;;;;;;;;;;;;;;;;;6042618;23;19924;-87
2021/12/15 00:04:26;;;;;;;;;;;;;;;;;;6041221;23;19960;-87
2021/12/15 00:06:52;;;;;;;;;;;;;;;;;;6042468;23;19964;-87
2021/12/15 00:09:18;;;;;;;;;;;;;;;;;;6044505;23;19917;-87
2021/12/15 00:11:45;;;;;;;;;;;;;;;;;;6043825;23;20010;-87
2021/12/15 00:14:11;;;;;;;;;;;;;;;;;;6044130;23;20705;-87
2021/12/15 00:16:37;;;;;;;;;;;;;;;;;;6044619;23;19917;-87
2021/12/15 00:19:03;;;;;;;;;;;;;;;;;;6044150;23;19917;-87
2021/12/15 00:21:29;;;;;;;;;;;;;;;;;;6044377;23;20329;-88
2021/12/15 00:23:56;;;;;;;;;;;;;;;;;;6043860;23;19984;-88
2021/12/15 00:26:22;;;;;;;;;;;;;;;;;;6067652;23;19917;-88
2021/12/15 00:28:49;;;;;;;;;;;;;;;;;;6040478;23;19924;-87
2021/12/15 00:31:15;;;;;;;;;;;;;;;;;;6041193;23;19921;-87
2021/12/15 00:33:41;;;;;;;;;;;;;;;;;;6040330;23;19924;-87
2021/12/15 00:36:07;;;;;;;;;;;;;;;;;;6040814;23;19965;-87
2021/12/15 00:38:33;;;;;;;;;;;;;;;;;;6041109;23;19921;-87
2021/12/15 00:40:59;;;;;;;;;;;;;;;;;;6042903;23;19952;-88
2021/12/15 00:43:24;;;;;;;;;;;;;;;;;;6067688;23;19921;-87
2021/12/15 00:45:50;;;;;;;;;;;;;;;;;;6043870;23;19924;-87
2021/12/15 00:48:16;;;;;;;;;;;;;;;;;;6044464;23;19921;-88
2021/12/15 00:50:42;;;;;;;;;;;;;;;;;;6069702;23;20334;-87
2021/12/15 00:53:08;;;;;;;;;;;;;;;;;;6046081;23;19957;-87
2021/12/15 00:55:34;;;;;;;;;;;;;;;;;;6069896;23;19924;-87
2021/12/15 00:58:00;;;;;;;;;;;;;;;;;;6045155;23;19940;-87
2021/12/15 01:00:26;;;;;;;;;;;;;;;;;;6044344;23;19917;-88
2021/12/15 01:02:52;;;;;;;;;;;;;;;;;;6069564;23;19917;-88
2021/12/15 01:05:18;;;;;;;;;;;;;;;;;;6045991;23;19917;-87
2021/12/15 01:07:44;;;;;;;;;;;;;;;;;;6069725;23;19944;-87
2021/12/15 01:10:12;;;;;;;;;;;;;;;;;;6046243;23;19917;-88
2021/12/15 01:20:39;;;;;;;;;;;;;;;;;;6069933;23;20003;-87
2021/12/15 01:23:07;;;;;;;;;;;;;;;;;;6066638;23;19925;-87
2021/12/15 01:25:33;;;;;;;;;;;;;;;;;;6042420;23;19917;-87
2021/12/15 01:27:59;;;;;;;;;;;;;;;;;;6068278;23;19924;-87
2021/12/15 01:30:25;;;;;;;;;;;;;;;;;;6069552;23;19928;-87
2021/12/15 01:32:50;;;;;;;;;;;;;;;;;;6045243;23;20340;-86
2021/12/15 01:35:16;;;;;;;;;;;;;;;;;;6069557;23;19924;-87
2021/12/15 01:37:42;;;;;;;;;;;;;;;;;;6045333;23;19975;-87
2021/12/15 01:40:08;;;;;;;;;;;;;;;;;;6044998;23;20378;-87
2021/12/15 01:42:35;;;;;;;;;;;;;;;;;;6045561;23;19921;-86
2021/12/15 01:47:46;;;;;;;;;;;;;;;;;;6067213;23;19943;-89
2021/12/15 01:50:12;;;;;;;;;;;;;;;;;;6044973;23;19953;-89
2021/12/15 01:52:38;;;;;;;;;;;;;;;;;;6069347;23;19996;-89
2021/12/15 01:55:04;;;;;;;;;;;;;;;;;;6044450;23;19917;-89
2021/12/15 01:57:30;;;;;;;;;;;;;;;;;;6045337;23;19917;-89
2021/12/15 01:59:56;;;;;;;;;;;;;;;;;;6044821;23;19940;-89
2021/12/15 02:02:21;;;;;;;;;;;;;;;;;;6045379;23;19913;-87
2021/12/15 02:04:47;;;;;;;;;;;;;;;;;;6045116;23;19924;-87
2021/12/15 02:07:16;;;;;;;;;;;;;;;;;;6045345;23;19913;-86
2021/12/15 02:12:17;;;;;;;;;;;;;;;;;;6065655;23;19924;-86
2021/12/15 02:14:43;;;;;;;;;;;;;;;;;;6041479;23;19946;-87
2021/12/15 02:17:08;;;;;;;;;;;;;;;;;;6065988;23;19972;-87
2021/12/15 02:19:34;;;;;;;;;;;;;;;;;;6044507;23;19924;-86
2021/12/15 02:22:00;;;;;;;;;;;;;;;;;;6044700;23;20404;-87
2021/12/15 02:24:27;;;;;;;;;;;;;;;;;;6044694;23;19913;-87
2021/12/15 02:26:58;;;;;;;;;;;;;;;;;;6044988;23;19948;-86
2021/12/15 02:29:24;;;;;;;;;;;;;;;;;;6045379;23;19917;-87
2021/12/15 02:34:32;;;;;;;;;;;;;;;;;;6068695;23;19956;-86
2021/12/15 02:39:30;;;;;;;;;;;;;;;;;;6067702;23;19917;-87
2021/12/15 02:41:56;;;;;;;;;;;;;;;;;;6044587;23;20337;-87
2021/12/15 02:44:21;;;;;;;;;;;;;;;;;;6044608;23;19959;-86
2021/12/15 02:46:47;;;;;;;;;;;;;;;;;;6068818;23;19960;-87
2021/12/15 02:49:13;;;;;;;;;;;;;;;;;;6044702;23;19933;-87
2021/12/15 02:51:39;;;;;;;;;;;;;;;;;;6044781;23;20306;-86
2021/12/15 02:54:07;;;;;;;;;;;;;;;;;;6044119;23;19961;-86
2021/12/15 02:56:33;;;;;;;;;;;;;;;;;;6044768;23;19999;-87
2021/12/15 02:59:03;;;;;;;;;;;;;;;;;;6043534;23;19947;-87
2021/12/15 03:01:41;;;;;;;;;;;;;;;;;;6041932;23;20008;-86
2021/12/15 03:06:55;;;;;;;;;;;;;;;;;;6067830;23;19949;-86
2021/12/15 03:17:25;;;;;;;;;;;;;;;;;;6068533;23;19921;-87
2021/12/15 03:19:51;;;;;;;;;;;;;;;;;;6044082;23;19949;-87
2021/12/15 03:22:17;;;;;;;;;;;;;;;;;;6044506;23;20039;-87
2021/12/15 03:24:43;;;;;;;;;;;;;;;;;;6044037;23;19913;-87
2021/12/15 03:27:15;;;;;;;;;;;;;;;;;;6041077;23;19973;-86
2021/12/15 03:37:37;;;;;;;;;;;;;;;;;;6064099;23;19921;-86
2021/12/15 03:40:03;;;;;;;;;;;;;;;;;;6043334;23;19913;-87
2021/12/15 03:42:30;;;;;;;;;;;;;;;;;;6068247;23;19917;-88
2021/12/15 03:45:04;;;;;;;;;;;;;;;;;;5119114;27;2053585;-87
2021/12/15 03:47:30;;;;;;;;;;;;;;;;;;5156230;27;19930;-87
2021/12/15 03:49:56;;;;;;;;;;;;;;;;;;5172293;27;19929;-87
2021/12/15 03:52:22;;;;;;;;;;;;;;;;;;5172645;27;19929;-87
2021/12/15 03:54:48;;;;;;;;;;;;;;;;;;5171885;27;19927;-86
2021/12/15 03:57:14;;;;;;;;;;;;;;;;;;5133832;27;19923;-87
2021/12/15 03:59:44;;;;;;;;;;;;;;;;;;5139219;27;19931;-85
2021/12/15 04:02:10;;;;;;;;;;;;;;;;;;5146230;27;20372;-87
2021/12/15 04:04:36;;;;;;;;;;;;;;;;;;5127831;27;19990;-86
2021/12/15 04:07:02;;;;;;;;;;;;;;;;;;5145874;27;19945;-86
2021/12/15 04:09:28;;;;;;;;;;;;;;;;;;5129178;27;19972;-86
2021/12/15 04:11:55;;;;;;;;;;;;;;;;;;5148136;27;19922;-87
2021/12/15 04:14:23;;;;;;;;;;;;;;;;;;5130886;27;20368;-87
2021/12/15 04:17:02;;;;;;;;;;;;;;;;;;5113442;27;19923;-87
2021/12/15 04:19:27;;;;;;;;;;;;;;;;;;5120388;27;20010;-87
2021/12/15 04:21:53;;;;;;;;;;;;;;;;;;5151439;27;19974;-87
2021/12/15 04:24:19;;;;;;;;;;;;;;;;;;5150948;27;19923;-87
2021/12/15 04:26:45;;;;;;;;;;;;;;;;;;5150784;27;19970;-86
2021/12/15 04:29:11;;;;;;;;;;;;;;;;;;5133865;27;19919;-86
2021/12/15 04:31:37;;;;;;;;;;;;;;;;;;5129328;27;19923;-86
2021/12/15 04:34:03;;;;;;;;;;;;;;;;;;5128199;27;19931;-87
2021/12/15 04:36:29;;;;;;;;;;;;;;;;;;5146004;27;19926;-87
2021/12/15 04:38:56;;;;;;;;;;;;;;;;;;5128169;27;19923;-87
2021/12/15 04:41:22;;;;;;;;;;;;;;;;;;5147363;27;19971;-87
2021/12/15 04:43:55;;;;;;;;;;;;;;;;;;5113773;27;19938;-87
2021/12/15 04:46:21;;;;;;;;;;;;;;;;;;5113000;27;19927;-87
2021/12/15 04:48:47;;;;;;;;;;;;;;;;;;5112619;27;19979;-87
2021/12/15 04:51:13;;;;;;;;;;;;;;;;;;5129917;27;19930;-86
2021/12/15 04:53:39;;;;;;;;;;;;;;;;;;5129669;27;19926;-87
2021/12/15 04:56:05;;;;;;;;;;;;;;;;;;5105416;27;19923;-87
2021/12/15 04:58:30;;;;;;;;;;;;;;;;;;5113177;27;19931;-87
2021/12/15 05:00:56;;;;;;;;;;;;;;;;;;5131346;27;19969;-87
2021/12/15 05:03:22;;;;;;;;;;;;;;;;;;5135990;27;19936;-86
2021/12/15 05:05:48;;;;;;;;;;;;;;;;;;5120496;27;20005;-87
2021/12/15 05:08:14;;;;;;;;;;;;;;;;;;5136433;27;19930;-87
2021/12/15 05:10:40;;;;;;;;;;;;;;;;;;5100769;27;19924;-87
2021/12/15 05:13:06;;;;;;;;;;;;;;;;;;5108515;27;19923;-87
2021/12/15 05:15:32;;;;;;;;;;;;;;;;;;5102404;27;19923;-86
2021/12/15 05:17:58;;;;;;;;;;;;;;;;;;5111232;27;20395;-87
2021/12/15 05:20:25;;;;;;;;;;;;;;;;;;5104537;27;20014;-87
2021/12/15 05:22:51;;;;;;;;;;;;;;;;;;5114910;27;19923;-87
2021/12/15 05:25:17;;;;;;;;;;;;;;;;;;5115780;27;20304;-86
2021/12/15 05:27:43;;;;;;;;;;;;;;;;;;5098469;27;20049;-87
2021/12/15 05:30:09;;;;;;;;;;;;;;;;;;5098623;27;19924;-87
2021/12/15 05:32:35;;;;;;;;;;;;;;;;;;5098209;27;19930;-86
2021/12/15 05:35:01;;;;;;;;;;;;;;;;;;5098515;27;19979;-87
2021/12/15 05:37:27;;;;;;;;;;;;;;;;;;5098634;27;19927;-87
2021/12/15 05:39:52;;;;;;;;;;;;;;;;;;5111235;27;19924;-87
2021/12/15 05:42:19;;;;;;;;;;;;;;;;;;5108292;27;19966;-87
2021/12/15 05:44:45;;;;;;;;;;;;;;;;;;5102432;27;20449;-87
2021/12/15 05:47:11;;;;;;;;;;;;;;;;;;5101102;27;19927;-87
2021/12/15 05:49:36;;;;;;;;;;;;;;;;;;5103189;27;19924;-88
2021/12/15 05:52:02;;;;;;;;;;;;;;;;;;5116895;27;19973;-89
2021/12/15 05:54:29;;;;;;;;;;;;;;;;;;5108150;27;19931;-89
2021/12/15 05:56:55;;;;;;;;;;;;;;;;;;5112310;27;19934;-90
2021/12/15 05:59:21;;;;;;;;;;;;;;;;;;5104842;27;20398;-90
2021/12/15 06:01:46;;;;;;;;;;;;;;;;;;5104844;27;19924;-90
2021/12/15 06:04:13;;;;;;;;;;;;;;;;;;5117388;27;19977;-90
2021/12/15 06:06:39;;;;;;;;;;;;;;;;;;5118689;27;20396;-90
2021/12/15 06:09:05;;;;;;;;;;;;;;;;;;5103670;27;19973;-86
2021/12/15 06:11:31;;;;;;;;;;;;;;;;;;5124334;27;19975;-87
2021/12/15 06:13:56;;;;;;;;;;;;;;;;;;5097769;27;20341;-86
2021/12/15 06:16:22;;;;;;;;;;;;;;;;;;5102997;27;19923;-87
2021/12/15 06:18:48;;;;;;;;;;;;;;;;;;5108578;27;19934;-87
2021/12/15 06:21:14;;;;;;;;;;;;;;;;;;5112036;27;19919;-87
2021/12/15 06:23:40;;;;;;;;;;;;;;;;;;5101838;27;20372;-87
2021/12/15 06:26:06;;;;;;;;;;;;;;;;;;5110173;27;19923;-86
2021/12/15 06:28:32;;;;;;;;;;;;;;;;;;5101927;27;19923;-87
2021/12/15 06:30:58;;;;;;;;;;;;;;;;;;5105552;27;19972;-87
2021/12/15 06:33:24;;;;;;;;;;;;;;;;;;5109418;27;19938;-86
2021/12/15 06:35:53;;;;;;;;;;;;;;;;;;5108242;27;19924;-87
2021/12/15 06:38:19;;;;;;;;;;;;;;;;;;5099766;27;19927;-87
2021/12/15 06:40:45;;;;;;;;;;;;;;;;;;5099886;27;19924;-88
2021/12/15 06:43:11;;;;;;;;;;;;;;;;;;5101721;27;19930;-87
2021/12/15 06:45:50;;;;;;;;;;;;;;;;;;5100902;27;20376;-86
2021/12/15 06:59:15;;;;;;;;;;;;;;;;;;5117124;27;19971;-89
2021/12/15 07:01:41;;;;;;;;;;;;;;;;;;5101791;27;19954;-88
2021/12/15 07:04:07;;;;;;;;;;;;;;;;;;5099480;27;20189;-86
2021/12/15 07:06:32;;;;;;;;;;;;;;;;;;5101871;27;19923;-88
2021/12/15 07:08:58;;;;;;;;;;;;;;;;;;5100265;27;19919;-87
2021/12/15 07:11:24;;;;;;;;;;;;;;;;;;5115341;27;19942;-88
2021/12/15 07:13:50;;;;;;;;;;;;;;;;;;5098322;27;20406;-87
2021/12/15 07:16:18;;;;;;;;;;;;;;;;;;5118741;27;19924;-87
2021/12/15 07:19:06;;;;;;;;;;;;;;;;;;5117743;27;19931;-87
2021/12/15 07:21:35;;;;;;;;;;;;;;;;;;5118874;27;19930;-88
2021/12/15 07:24:00;;;;;;;;;;;;;;;;;;5101029;27;19970;-89
2021/12/15 07:26:26;;;;;;;;;;;;;;;;;;5097727;27;19974;-88
2021/12/15 07:28:52;;;;;;;;;;;;;;;;;;5099185;27;19923;-88
2021/12/15 07:31:18;;;;;;;;;;;;;;;;;;5100720;27;19927;-87
2021/12/15 07:33:44;;;;;;;;;;;;;;;;;;5100031;27;19930;-88
2021/12/15 07:36:10;;;;;;;;;;;;;;;;;;5101898;28;19931;-88
2021/12/15 07:38:41;;;;;;;;;;;;;;;;;;5105350;27;19976;-88
2021/12/15 07:41:09;;;;;;;;;;;;;;;;;;5113190;28;19946;-89
2021/12/15 07:43:35;;;;;;;;;;;;;;;;;;5112607;28;19927;-88
2021/12/15 07:46:01;;;;;;;;;;;;;;;;;;5114839;27;19931;-90
2021/12/15 07:48:27;;;;;;;;;;;;;;;;;;5104601;27;19918;-89
2021/12/15 07:50:53;;;;;;;;;;;;;;;;;;5097836;27;19923;-89
2021/12/15 07:53:19;;;;;;;;;;;;;;;;;;5102964;27;19923;-87
2021/12/15 07:55:45;;;;;;;;;;;;;;;;;;5100593;27;20010;-88
2021/12/15 07:58:11;;;;;;;;;;;;;;;;;;5100896;27;19954;-85
2021/12/15 08:00:37;;;;;;;;;;;;;;;;;;5118121;27;19919;-87
2021/12/15 08:03:02;;;;;;;;;;;;;;;;;;5097926;27;20392;-88
2021/12/15 08:05:28;;;;;;;;;;;;;;;;;;5117300;27;20004;-88
2021/12/15 08:07:54;;;;;;;;;;;;;;;;;;5101595;27;19923;-87
2021/12/15 08:10:20;;;;;;;;;;;;;;;;;;5100049;27;19942;-88
2021/12/15 08:12:46;;;;;;;;;;;;;;;;;;5099902;27;20416;-88
2021/12/15 08:15:12;;;;;;;;;;;;;;;;;;5119158;27;19974;-87
2021/12/15 08:17:38;;;;;;;;;;;;;;;;;;5096648;27;19966;-89
2021/12/15 08:20:04;;;;;;;;;;;;;;;;;;5101256;28;19980;-88
2021/12/15 08:22:30;;;;;;;;;;;;;;;;;;5102482;28;19923;-89
2021/12/15 08:24:56;;;;;;;;;;;;;;;;;;5095143;28;20015;-88
2021/12/15 08:27:22;;;;;;;;;;;;;;;;;;5095180;28;19946;-90
2021/12/15 08:29:47;;;;;;;;;;;;;;;;;;5105845;27;20436;-92
2021/12/15 08:32:13;;;;;;;;;;;;;;;;;;5109733;27;19924;-91
2021/12/15 08:34:39;;;;;;;;;;;;;;;;;;5099660;27;19923;-90
2021/12/15 08:37:05;;;;;;;;;;;;;;;;;;5116192;27;19930;-89
2021/12/15 08:39:31;;;;;;;;;;;;;;;;;;5099452;27;20411;-87
2021/12/15 08:41:57;;;;;;;;;;;;;;;;;;5102223;27;19962;-88
2021/12/15 08:44:23;;;;;;;;;;;;;;;;;;5127128;27;19924;-87
2021/12/15 08:46:49;;;;;;;;;;;;;;;;;;5115765;27;20399;-87
2021/12/15 08:49:16;;;;;;;;;;;;;;;;;;5107835;27;19924;-88
2021/12/15 08:51:42;;;;;;;;;;;;;;;;;;5100087;27;19923;-87
2021/12/15 08:54:08;;;;;;;;;;;;;;;;;;5114559;27;20292;-85
2021/12/15 08:56:34;;;;;;;;;;;;;;;;;;5115257;27;20281;-86
2021/12/15 08:59:00;;;;;;;;;;;;;;;;;;5098437;27;19973;-85
2021/12/15 09:01:26;;;;;;;;;;;;;;;;;;5097865;27;19923;-85
2021/12/15 09:03:52;;;;;;;;;;;;;;;;;;5115424;27;19928;-85
2021/12/15 09:06:18;;;;;;;;;;;;;;;;;;5098110;27;19928;-85
2021/12/15 09:08:45;;;;;;;;;;;;;;;;;;5098059;27;20021;-85
2021/12/15 09:11:11;;;;;;;;;;;;;;;;;;5114770;27;20018;-86
2021/12/15 09:13:37;;;;;;;;;;;;;;;;;;5113827;27;20002;-85
2021/12/15 09:16:03;;;;;;;;;;;;;;;;;;5097635;27;19983;-85
2021/12/15 09:18:29;;;;;;;;;;;;;;;;;;5098072;27;20656;-86
2021/12/15 09:20:55;;;;;;;;;;;;;;;;;;5114717;27;19976;-85
2021/12/15 09:23:21;;;;;;;;;;;;;;;;;;5104290;27;19929;-85
2021/12/15 09:25:47;;;;;;;;;;;;;;;;;;5100111;27;19923;-86
2021/12/15 09:28:12;;;;;;;;;;;;;;;;;;5119656;27;19998;-86
2021/12/15 09:30:43;;;;;;;;;;;;;;;;;;5103059;27;20279;-86
2021/12/15 09:33:09;;;;;;;;;;;;;;;;;;5118161;27;20059;-86
2021/12/15 09:35:35;;;;;;;;;;;;;;;;;;5135202;27;20356;-85
2021/12/15 09:38:01;;;;;;;;;;;;;;;;;;5117482;27;19933;-85
2021/12/15 09:40:27;;;;;;;;;;;;;;;;;;5117934;27;20287;-85
2021/12/15 09:42:53;;;;;;;;;;;;;;;;;;5118296;27;19923;-86
2021/12/15 09:45:42;;;;;;;;;;;;;;;;;;5097380;27;19992;-86
2021/12/15 09:57:00;;;;;;;;;;;;;;;;;;5132357;27;19923;-86
2021/12/15 10:05:06;;;;;;;;;;;;;;;;;;5071897;28;20379;-86
2021/12/15 10:18:22;;;;;;;;;;;;;;;;;;5061365;28;19924;-86
2021/12/15 10:20:48;;;;;;;;;;;;;;;;;;5057756;28;19928;-86
2021/12/15 10:23:15;;;;;;;;;;;;;;;;;;5072685;28;19924;-86
2021/12/15 10:25:47;;;;;;;;;;;;;;;;;;5071066;28;19931;-86
2021/12/15 10:28:13;;;;;;;;;;;;;;;;;;5088807;28;19920;-86
2021/12/15 10:30:39;;;;;;;;;;;;;;;;;;5088810;28;20399;-86
2021/12/15 10:33:05;;;;;;;;;;;;;;;;;;5087704;28;19931;-86
2021/12/15 10:35:31;;;;;;;;;;;;;;;;;;5067415;28;19920;-86
2021/12/15 10:37:57;;;;;;;;;;;;;;;;;;5044152;28;20039;-86
2021/12/15 10:40:22;;;;;;;;;;;;;;;;;;5063018;28;20369;-87
2021/12/15 10:42:48;;;;;;;;;;;;;;;;;;5101739;27;19930;-86
2021/12/15 10:45:14;;;;;;;;;;;;;;;;;;5095582;27;20363;-86
2021/12/15 10:47:40;;;;;;;;;;;;;;;;;;5104471;27;19924;-86
2021/12/15 10:50:06;;;;;;;;;;;;;;;;;;5104202;27;19929;-86
2021/12/15 10:52:34;;;;;;;;;;;;;;;;;;5119117;27;20018;-86
2021/12/15 10:55:00;;;;;;;;;;;;;;;;;;5103643;27;19924;-86
2021/12/15 10:57:25;;;;;;;;;;;;;;;;;;5103523;27;20037;-86
2021/12/15 10:59:51;;;;;;;;;;;;;;;;;;5109338;27;19965;-86
2021/12/15 11:02:21;;;;;;;;;;;;;;;;;;5103158;27;19927;-86
2021/12/15 11:04:47;;;;;;;;;;;;;;;;;;5105027;27;20005;-86
2021/12/15 11:07:13;;;;;;;;;;;;;;;;;;5095090;27;20286;-85
2021/12/15 11:09:39;;;;;;;;;;;;;;;;;;5119763;27;19924;-86
2021/12/15 11:12:05;;;;;;;;;;;;;;;;;;5106963;27;19927;-86
2021/12/15 11:14:31;;;;;;;;;;;;;;;;;;5104469;27;20392;-86
2021/12/15 11:16:57;;;;;;;;;;;;;;;;;;5101311;27;19923;-86
2021/12/15 11:19:23;;;;;;;;;;;;;;;;;;5099491;27;19931;-86
2021/12/15 11:21:49;;;;;;;;;;;;;;;;;;5117383;27;19927;-85
2021/12/15 11:24:19;;;;;;;;;;;;;;;;;;5120662;27;19923;-86
2021/12/15 11:26:45;;;;;;;;;;;;;;;;;;5100362;27;19935;-86
2021/12/15 11:29:11;;;;;;;;;;;;;;;;;;5109602;27;19953;-86
2021/12/15 11:31:37;;;;;;;;;;;;;;;;;;5096389;27;19938;-86
2021/12/15 11:34:05;;;;;;;;;;;;;;;;;;5094324;27;19930;-86
2021/12/15 11:36:32;;;;;;;;;;;;;;;;;;5101498;27;19972;-86
2021/12/15 11:38:57;;;;;;;;;;;;;;;;;;5106618;27;19931;-86
2021/12/15 11:41:23;;;;;;;;;;;;;;;;;;5104640;27;19919;-86
2021/12/15 11:43:50;;;;;;;;;;;;;;;;;;5107399;27;19948;-86
2021/12/15 11:46:16;;;;;;;;;;;;;;;;;;5103920;27;20014;-86
2021/12/15 11:48:44;;;;;;;;;;;;;;;;;;5100571;27;20013;-86
2021/12/15 11:51:10;;;;;;;;;;;;;;;;;;5103833;27;19923;-86
2021/12/15 11:53:36;;;;;;;;;;;;;;;;;;5100004;27;19992;-87
2021/12/15 11:56:02;;;;;;;;;;;;;;;;;;5102995;27;19923;-87
2021/12/15 11:58:27;;;;;;;;;;;;;;;;;;5107478;27;19927;-87
2021/12/15 12:00:53;;;;;;;;;;;;;;;;;;5102139;27;19934;-87
2021/12/15 12:03:19;;;;;;;;;;;;;;;;;;5102594;28;20411;-87
2021/12/15 12:05:45;;;;;;;;;;;;;;;;;;5114406;27;19923;-87
2021/12/15 12:08:11;;;;;;;;;;;;;;;;;;5103034;27;20461;-87
2021/12/15 12:10:44;;;;;;;;;;;;;;;;;;5119749;27;19923;-87
2021/12/15 12:13:11;;;;;;;;;;;;;;;;;;5116649;27;19930;-88
2021/12/15 12:15:36;;;;;;;;;;;;;;;;;;5102562;27;20384;-89
2021/12/15 12:18:04;;;;;;;;;;;;;;;;;;5102465;27;19923;-87
2021/12/15 12:20:30;;;;;;;;;;;;;;;;;;5099174;27;20350;-86
2021/12/15 12:22:56;;;;;;;;;;;;;;;;;;5098858;27;19935;-87
2021/12/15 12:25:22;;;;;;;;;;;;;;;;;;5099142;27;19923;-87
2021/12/15 12:27:48;;;;;;;;;;;;;;;;;;5099208;27;19934;-86
2021/12/15 12:30:14;;;;;;;;;;;;;;;;;;5100397;27;20018;-89
2021/12/15 12:32:40;;;;;;;;;;;;;;;;;;5106708;27;19927;-89
2021/12/15 12:35:07;;;;;;;;;;;;;;;;;;5116492;27;19923;-87
2021/12/15 12:37:33;;;;;;;;;;;;;;;;;;5117011;27;19932;-87
2021/12/15 12:40:04;;;;;;;;;;;;;;;;;;5102844;27;19923;-93
2021/12/15 12:42:30;;;;;;;;;;;;;;;;;;5102942;27;20442;-87
2021/12/15 12:44:56;;;;;;;;;;;;;;;;;;5099864;27;19967;-90
2021/12/15 12:47:31;;;;;;;;;;;;;;;;;;5107961;27;19923;-89
2021/12/15 12:50:29;;;;;;;;;;;;;;;;;;5104400;27;19931;-91
2021/12/15 13:01:06;;;;;;;;;;;;;;;;;;5116992;27;19923;-90
2021/12/15 13:03:34;;;;;;;;;;;;;;;;;;5119192;27;20284;-90
2021/12/15 13:06:00;;;;;;;;;;;;;;;;;;5118609;27;19976;-90
2021/12/15 13:08:26;;;;;;;;;;;;;;;;;;5105178;27;19923;-91
2021/12/15 13:10:52;;;;;;;;;;;;;;;;;;5115813;27;20380;-90
2021/12/15 13:13:18;;;;;;;;;;;;;;;;;;5115572;27;19928;-90
2021/12/15 13:15:44;;;;;;;;;;;;;;;;;;5097439;27;20372;-90
2021/12/15 13:18:13;;;;;;;;;;;;;;;;;;5114715;27;19993;-90
2021/12/15 13:20:39;;;;;;;;;;;;;;;;;;5115933;27;20378;-90
2021/12/15 13:23:27;;;;;;;;;;;;;;;;;;5098236;27;19927;-89
2021/12/15 13:31:08;;;;;;;;;;;;;;;;;;5115884;27;19973;-90
2021/12/15 13:33:34;;;;;;;;;;;;;;;;;;5099536;27;19919;-88
2021/12/15 13:36:00;;;;;;;;;;;;;;;;;;5097619;27;19927;-88
2021/12/15 13:38:26;;;;;;;;;;;;;;;;;;5106756;27;19971;-88
2021/12/15 13:40:53;;;;;;;;;;;;;;;;;;5117862;27;20261;-89
2021/12/15 13:43:19;;;;;;;;;;;;;;;;;;5111992;27;19923;-90
2021/12/15 13:45:45;;;;;;;;;;;;;;;;;;5099660;27;20304;-88
2021/12/15 13:48:11;;;;;;;;;;;;;;;;;;5103285;27;19923;-90
2021/12/15 13:50:36;;;;;;;;;;;;;;;;;;5118172;27;20334;-89
2021/12/15 13:53:03;;;;;;;;;;;;;;;;;;5118347;27;19931;-89
2021/12/15 13:55:29;;;;;;;;;;;;;;;;;;5119636;27;20406;-89
2021/12/15 13:57:55;;;;;;;;;;;;;;;;;;5114527;27;19970;-88
2021/12/15 14:00:21;;;;;;;;;;;;;;;;;;5115728;27;19924;-88
2021/12/15 14:02:46;;;;;;;;;;;;;;;;;;5107783;27;19930;-88
2021/12/15 14:05:12;;;;;;;;;;;;;;;;;;5102340;27;19955;-89
2021/12/15 14:07:39;;;;;;;;;;;;;;;;;;5097570;27;19931;-89
2021/12/15 14:10:04;;;;;;;;;;;;;;;;;;5113641;27;19923;-89
2021/12/15 14:12:30;;;;;;;;;;;;;;;;;;5118415;27;19930;-90
2021/12/15 14:14:57;;;;;;;;;;;;;;;;;;5108153;27;19973;-88
2021/12/15 14:17:23;;;;;;;;;;;;;;;;;;5100819;27;19924;-89
2021/12/15 14:19:48;;;;;;;;;;;;;;;;;;5097040;27;19934;-89
2021/12/15 14:22:14;;;;;;;;;;;;;;;;;;5101288;27;20376;-89
2021/12/15 14:24:40;;;;;;;;;;;;;;;;;;5116528;27;20047;-89
2021/12/15 14:27:06;;;;;;;;;;;;;;;;;;5097471;27;20404;-89
2021/12/15 14:29:32;;;;;;;;;;;;;;;;;;5102909;27;19923;-90
2021/12/15 14:32:01;;;;;;;;;;;;;;;;;;5104606;27;20142;-89
2021/12/15 14:34:28;;;;;;;;;;;;;;;;;;5114357;27;19924;-89
2021/12/15 14:36:53;;;;;;;;;;;;;;;;;;5097847;27;19990;-89
2021/12/15 14:39:19;;;;;;;;;;;;;;;;;;5110905;27;19930;-88
2021/12/15 14:41:45;;;;;;;;;;;;;;;;;;5114154;27;19923;-88
2021/12/15 14:44:11;;;;;;;;;;;;;;;;;;5113519;27;20021;-88
2021/12/15 14:46:37;;;;;;;;;;;;;;;;;;5107957;27;20389;-88
2021/12/15 14:49:03;;;;;;;;;;;;;;;;;;5097185;27;20550;-88
2021/12/15 14:51:29;;;;;;;;;;;;;;;;;;5097239;27;20027;-88
2021/12/15 14:53:57;;;;;;;;;;;;;;;;;;5113828;27;20278;-89
2021/12/15 14:56:23;;;;;;;;;;;;;;;;;;5105402;27;19950;-89
2021/12/15 14:58:49;;;;;;;;;;;;;;;;;;5116527;27;20018;-88
2021/12/15 15:01:14;;;;;;;;;;;;;;;;;;5117242;27;19930;-90
2021/12/15 15:03:40;;;;;;;;;;;;;;;;;;5108961;27;19927;-88
2021/12/15 15:06:06;;;;;;;;;;;;;;;;;;5103300;27;20519;-89
2021/12/15 15:08:32;;;;;;;;;;;;;;;;;;5105327;27;19924;-88
2021/12/15 15:10:58;;;;;;;;;;;;;;;;;;5101074;27;19927;-88
2021/12/15 15:13:24;;;;;;;;;;;;;;;;;;5115303;27;19946;-89
2021/12/15 15:15:50;;;;;;;;;;;;;;;;;;5111945;27;19924;-89
2021/12/15 15:18:25;;;;;;;;;;;;;;;;;;5118653;27;19930;-88
2021/12/15 15:20:51;;;;;;;;;;;;;;;;;;5101050;27;20392;-89
2021/12/15 15:23:16;;;;;;;;;;;;;;;;;;5102632;27;19927;-89
2021/12/15 15:25:42;;;;;;;;;;;;;;;;;;5129810;27;19930;-90
2021/12/15 15:28:08;;;;;;;;;;;;;;;;;;5105873;27;20022;-89
2021/12/15 15:30:34;;;;;;;;;;;;;;;;;;5106450;28;19923;-89
2021/12/15 15:33:00;;;;;;;;;;;;;;;;;;5112998;27;19985;-88
2021/12/15 15:35:26;;;;;;;;;;;;;;;;;;5106014;27;20376;-88
2021/12/15 15:37:52;;;;;;;;;;;;;;;;;;5112772;27;19928;-88
2021/12/15 15:40:18;;;;;;;;;;;;;;;;;;5096047;27;20301;-88
2021/12/15 15:42:44;;;;;;;;;;;;;;;;;;5105416;28;19980;-88
2021/12/15 15:45:09;;;;;;;;;;;;;;;;;;5109853;27;19927;-89
2021/12/15 15:47:35;;;;;;;;;;;;;;;;;;5097008;28;20012;-88
2021/12/15 15:50:01;;;;;;;;;;;;;;;;;;5114938;27;19941;-89
2021/12/15 15:52:27;;;;;;;;;;;;;;;;;;5106269;28;20079;-88
2021/12/15 15:54:53;;;;;;;;;;;;;;;;;;5106933;27;19931;-89
2021/12/15 15:57:22;;;;;;;;;;;;;;;;;;5110680;28;19923;-89
2021/12/15 15:59:48;;;;;;;;;;;;;;;;;;5101872;28;19924;-87
2021/12/15 16:02:14;;;;;;;;;;;;;;;;;;5095789;28;19923;-89
2021/12/15 16:04:40;;;;;;;;;;;;;;;;;;5101166;28;19929;-86
2021/12/15 16:07:06;;;;;;;;;;;;;;;;;;5097303;28;19967;-87
2021/12/15 16:09:32;;;;;;;;;;;;;;;;;;5107517;27;19930;-87
2021/12/15 16:11:58;;;;;;;;;;;;;;;;;;5115582;27;20379;-87
2021/12/15 16:14:25;;;;;;;;;;;;;;;;;;5114557;27;19923;-87
2021/12/15 16:16:59;;;;;;;;;;;;;;;;;;5109501;27;20292;-88
2021/12/15 16:19:36;;;;;;;;;;;;;;;;;;5099069;28;20288;-88
2021/12/15 16:24:46;;;;;;;;;;;;;;;;;;5126776;27;20014;-88
2021/12/15 16:27:12;;;;;;;;;;;;;;;;;;5106632;27;20010;-88
2021/12/15 16:29:39;;;;;;;;;;;;;;;;;;5110276;28;19949;-88
2021/12/15 16:32:07;;;;;;;;;;;;;;;;;;5103933;28;19930;-88
2021/12/15 16:34:33;;;;;;;;;;;;;;;;;;5099753;28;19919;-88
2021/12/15 16:36:59;;;;;;;;;;;;;;;;;;5098763;28;19924;-87
2021/12/15 16:39:25;;;;;;;;;;;;;;;;;;5099210;27;20327;-88
2021/12/15 16:41:51;;;;;;;;;;;;;;;;;;5100868;27;19923;-88
2021/12/15 16:44:19;;;;;;;;;;;;;;;;;;5111958;27;19974;-88
2021/12/15 16:46:46;;;;;;;;;;;;;;;;;;5107156;27;19924;-88
2021/12/15 16:49:14;;;;;;;;;;;;;;;;;;5099942;27;19923;-88
2021/12/15 16:51:40;;;;;;;;;;;;;;;;;;5102606;27;20403;-88
2021/12/15 16:54:06;;;;;;;;;;;;;;;;;;5106103;27;19923;-88
2021/12/15 16:56:32;;;;;;;;;;;;;;;;;;5110773;27;19990;-88
2021/12/15 16:58:58;;;;;;;;;;;;;;;;;;5106733;27;19989;-88
2021/12/15 17:01:24;;;;;;;;;;;;;;;;;;5107571;27;20372;-88
2021/12/15 17:03:49;;;;;;;;;;;;;;;;;;5119087;27;20013;-88
2021/12/15 17:06:15;;;;;;;;;;;;;;;;;;5123353;27;20408;-89
2021/12/15 17:08:41;;;;;;;;;;;;;;;;;;5106048;27;19941;-87
2021/12/15 17:11:09;;;;;;;;;;;;;;;;;;5112385;27;20416;-89
2021/12/15 17:13:35;;;;;;;;;;;;;;;;;;5115894;27;19924;-88
2021/12/15 17:16:07;;;;;;;;;;;;;;;;;;5098626;27;19934;-88
2021/12/15 17:18:33;;;;;;;;;;;;;;;;;;5104500;27;19924;-89
2021/12/15 17:21:01;;;;;;;;;;;;;;;;;;5111744;27;19933;-89
2021/12/15 17:23:27;;;;;;;;;;;;;;;;;;5106053;27;19927;-88
2021/12/15 17:25:52;;;;;;;;;;;;;;;;;;5105872;27;19967;-89
2021/12/15 17:28:18;;;;;;;;;;;;;;;;;;5101422;27;20391;-88
2021/12/15 17:30:44;;;;;;;;;;;;;;;;;;5114740;27;20020;-88
2021/12/15 17:33:10;;;;;;;;;;;;;;;;;;5113429;27;20408;-89
2021/12/15 17:35:36;;;;;;;;;;;;;;;;;;5109087;27;19920;-88
2021/12/15 17:38:02;;;;;;;;;;;;;;;;;;5115146;27;19923;-88
2021/12/15 17:40:28;;;;;;;;;;;;;;;;;;5107704;27;20479;-89
2021/12/15 17:42:54;;;;;;;;;;;;;;;;;;5113724;27;19930;-88
2021/12/15 17:45:23;;;;;;;;;;;;;;;;;;5115086;27;20381;-89
2021/12/15 17:47:49;;;;;;;;;;;;;;;;;;5097913;27;19989;-88
2021/12/15 17:50:15;;;;;;;;;;;;;;;;;;5128580;27;19962;-89
2021/12/15 17:52:41;;;;;;;;;;;;;;;;;;5102764;27;19962;-89
2021/12/15 17:55:07;;;;;;;;;;;;;;;;;;5106225;27;19938;-92
2021/12/15 17:57:33;;;;;;;;;;;;;;;;;;5115030;27;20372;-89
2021/12/15 17:59:59;;;;;;;;;;;;;;;;;;5111993;27;19928;-89
2021/12/15 18:02:25;;;;;;;;;;;;;;;;;;5110953;27;19930;-89
2021/12/15 18:04:50;;;;;;;;;;;;;;;;;;5104387;27;19939;-88
2021/12/15 18:07:16;;;;;;;;;;;;;;;;;;5103846;27;19930;-89
2021/12/15 18:09:46;;;;;;;;;;;;;;;;;;5104123;27;19953;-90
2021/12/15 18:12:12;;;;;;;;;;;;;;;;;;5103561;27;19919;-89